Davisburg, Kentucky
Current Conditions -  °F | °C
As of 4:35 PM on Wednesday 26 Nov 2014 (Local Time) from KI35 Reporting Station
Scattered Clouds Scattered Clouds  
Wind Chill: 46°   Ceiling: Unl
Heat Index: 48°   Visibility: 10mi
Dew Point: 21°   Wind: 6mph
Humidity: 34%   Direction: 290°WNW
Pressure: 29.99"   Gusts: NA
Location:  36.7417°N, 83.6911°W
Report Text: KI35 262135Z AUTO 29005KT 10SM SCT055 09/M06 A2999 RMK AO1
Loading
Personal Weather Stations






























Interactive Weather Map New forecast layout! Learn more

10-Day Weather Forecast

Advertisements
Track Severe Weather on mobile